createdAt,value
2023-03-27T00:02:44.131Z,43.88
2023-03-27T00:06:44.203Z,46.29
2023-03-27T00:10:44.318Z,45.80
2023-03-27T00:14:44.484Z,44.47
2023-03-27T00:18:44.621Z,44.99
2023-03-27T00:22:44.764Z,37.34
2023-03-27T00:26:44.914Z,46.22
2023-03-27T00:30:45.095Z,40.26
2023-03-27T00:34:45.189Z,42.27
2023-03-27T00:38:45.332Z,38.47
2023-03-27T00:42:45.532Z,40.32
2023-03-27T00:46:45.635Z,43.09
2023-03-27T00:50:45.751Z,36.45
2023-03-27T00:54:45.880Z,38.68
2023-03-27T00:58:45.998Z,38.91
2023-03-27T01:02:46.227Z,34.40
2023-03-27T01:06:46.300Z,34.34
2023-03-27T01:10:46.440Z,37.98
2023-03-27T01:14:46.576Z,37.70
2023-03-27T01:18:46.721Z,37.44
2023-03-27T01:22:46.857Z,39.14
2023-03-27T01:26:46.999Z,35.64
2023-03-27T01:30:47.106Z,38.05
2023-03-27T01:34:47.223Z,40.77
2023-03-27T01:38:48.295Z,40.70
2023-03-27T01:42:47.361Z,37.23
2023-03-27T01:46:47.426Z,41.66
2023-03-27T01:50:47.486Z,34.27
2023-03-27T01:54:47.543Z,38.51
2023-03-27T01:58:47.625Z,39.07
2023-03-27T02:02:47.748Z,39.68
2023-03-27T02:06:47.781Z,40.48
2023-03-27T02:10:47.884Z,41.28
2023-03-27T02:14:48.019Z,39.65
2023-03-27T02:18:48.200Z,41.55
2023-03-27T02:22:48.323Z,42.06
2023-03-27T02:26:48.471Z,37.46
2023-03-27T02:31:05.685Z,40.65
2023-03-27T02:34:49.735Z,41.02
2023-03-27T02:38:48.811Z,41.13
2023-03-27T02:42:48.866Z,42.46
2023-03-27T02:46:48.953Z,38.20
2023-03-27T02:50:49.025Z,40.69
2023-03-27T02:54:49.138Z,42.02
2023-03-27T02:58:49.244Z,39.73
2023-03-27T03:02:49.486Z,42.60
2023-03-27T03:06:49.592Z,39.89
2023-03-27T03:10:49.774Z,40.48
2023-03-27T03:14:50.024Z,39.16
2023-03-27T03:18:50.365Z,41.42
2023-03-27T03:22:50.671Z,43.46
2023-03-27T03:26:51.009Z,39.36
2023-03-27T03:30:51.332Z,38.88
2023-03-27T03:34:51.621Z,40.11
2023-03-27T03:38:51.938Z,39.69
2023-03-27T03:42:52.179Z,41.33
2023-03-27T03:46:52.455Z,38.49
2023-03-27T03:50:52.545Z,38.20
2023-03-27T03:54:52.596Z,40.41
2023-03-27T03:58:52.658Z,37.41
2023-03-27T04:02:52.750Z,40.81
2023-03-27T04:06:52.754Z,39.04
2023-03-27T04:10:52.854Z,40.99
2023-03-27T04:14:52.930Z,37.25
2023-03-27T04:18:53.013Z,39.88
2023-03-27T04:22:54.279Z,40.52
2023-03-27T04:26:53.098Z,42.02
2023-03-27T04:30:53.396Z,37.10
2023-03-27T04:34:53.479Z,42.10
2023-03-27T04:38:53.570Z,41.32
2023-03-27T04:42:53.628Z,38.46
2023-03-27T04:46:53.757Z,40.24
2023-03-27T04:50:53.799Z,37.57
2023-03-27T04:54:53.810Z,42.81
2023-03-27T04:58:53.869Z,38.98
2023-03-27T05:02:53.929Z,38.78
2023-03-27T05:06:54.001Z,38.53
2023-03-27T05:10:54.149Z,42.00
2023-03-27T05:14:54.320Z,39.24
2023-03-27T05:18:54.655Z,37.16
2023-03-27T05:22:54.983Z,39.52
2023-03-27T05:26:55.288Z,58.09
2023-03-27T05:30:55.878Z,105.73
2023-03-27T05:34:55.882Z,113.56
2023-03-27T05:38:56.149Z,115.22
2023-03-27T05:42:56.458Z,125.61
2023-03-27T05:46:56.753Z,134.13
2023-03-27T05:50:56.990Z,127.85
2023-03-27T05:54:56.855Z,127.63
2023-03-27T05:58:56.936Z,121.29
2023-03-27T06:02:57.015Z,114.29
2023-03-27T06:06:57.009Z,116.18
2023-03-27T06:10:57.219Z,115.27
2023-03-27T06:14:57.101Z,111.17
2023-03-27T06:18:57.149Z,111.70
2023-03-27T06:22:57.261Z,122.93
2023-03-27T06:26:57.565Z,138.72
2023-03-27T06:30:57.892Z,6.31
2023-03-27T06:34:58.202Z,74.68
2023-03-27T06:38:58.434Z,125.10
2023-03-27T06:42:58.666Z,182.30
2023-03-27T06:46:58.955Z,238.59
2023-03-27T06:50:59.187Z,207.89
2023-03-27T06:54:59.361Z,28.99
2023-03-27T06:58:59.534Z,42.97
2023-03-27T07:02:59.865Z,93.60
2023-03-27T07:07:00.954Z,130.05
2023-03-27T07:11:11.692Z,175.26
2023-03-27T07:15:01.311Z,200.88
2023-03-27T07:19:02.458Z,233.15
2023-03-27T07:23:00.356Z,241.13
2023-03-27T07:27:00.562Z,245.75
2023-03-27T07:31:01.493Z,248.26
2023-03-27T07:35:00.765Z,249.74
2023-03-27T07:39:00.951Z,245.39
2023-03-27T07:43:01.130Z,246.87
2023-03-27T07:47:01.341Z,247.17
2023-03-27T07:51:10.772Z,245.15
2023-03-27T07:55:02.607Z,246.76
2023-03-27T07:59:01.695Z,245.28
2023-03-27T08:03:01.833Z,244.63
2023-03-27T08:07:01.939Z,243.40
2023-03-27T08:11:02.207Z,240.84
2023-03-27T08:15:02.440Z,246.56
2023-03-27T08:19:02.680Z,240.49
2023-03-27T08:23:02.946Z,229.83
2023-03-27T08:27:03.217Z,223.72
2023-03-27T08:31:03.553Z,223.56
2023-03-27T08:35:03.756Z,222.57
2023-03-27T08:39:04.021Z,223.08
2023-03-27T08:43:04.249Z,223.86
2023-03-27T08:47:04.502Z,225.73
2023-03-27T08:51:04.700Z,227.07
2023-03-27T08:55:05.290Z,227.26
2023-03-27T08:59:05.129Z,225.50
2023-03-27T09:03:05.468Z,225.04
2023-03-27T09:07:05.543Z,226.07
2023-03-27T09:11:05.748Z,226.07
2023-03-27T09:15:05.887Z,225.92
2023-03-27T09:19:06.175Z,229.49
2023-03-27T09:23:06.250Z,244.48
2023-03-27T09:27:07.676Z,250.00
2023-03-27T09:31:06.511Z,250.00
2023-03-27T09:35:06.580Z,251.34
2023-03-27T09:39:06.800Z,249.89
2023-03-27T09:43:07.065Z,248.94
2023-03-27T09:47:07.297Z,249.91
2023-03-27T09:51:07.492Z,249.82
2023-03-27T09:55:08.555Z,248.80
2023-03-27T09:59:07.891Z,250.00
2023-03-27T10:03:08.221Z,250.00
2023-03-27T10:07:09.065Z,250.00
2023-03-27T10:11:08.343Z,246.22
2023-03-27T10:15:08.496Z,247.24
2023-03-27T10:19:08.756Z,246.40
2023-03-27T10:23:09.088Z,246.70
2023-03-27T10:27:13.517Z,247.33
2023-03-27T10:31:09.476Z,247.61
2023-03-27T10:35:09.329Z,248.47
2023-03-27T10:39:11.108Z,248.10
2023-03-27T10:43:11.081Z,248.23
2023-03-27T10:47:09.505Z,247.41
2023-03-27T10:51:09.515Z,243.85
2023-03-27T10:55:09.510Z,245.50
2023-03-27T10:59:09.512Z,243.45
2023-03-27T11:03:09.620Z,242.43
2023-03-27T11:11:29.476Z,25.00
2023-03-27T11:15:28.632Z,25.46
2023-03-27T11:19:28.542Z,25.00
2023-03-27T11:23:28.624Z,29.64
2023-03-27T11:27:28.409Z,25.37
2023-03-27T11:31:28.374Z,27.12
2023-03-27T11:35:28.252Z,26.17
2023-03-27T11:39:28.199Z,27.19
2023-03-27T11:43:28.116Z,26.16
2023-03-27T11:47:28.115Z,25.00
2023-03-27T11:51:28.107Z,26.52
2023-03-27T11:55:28.564Z,26.97
2023-03-27T11:59:28.217Z,28.48
2023-03-27T12:03:28.364Z,25.05
2023-03-27T12:07:36.141Z,26.69
2023-03-27T12:11:29.281Z,25.83
2023-03-27T12:15:28.216Z,27.35
2023-03-27T12:19:31.184Z,26.93
2023-03-27T12:23:29.052Z,26.97
2023-03-27T12:27:27.963Z,26.62
2023-03-27T12:31:28.074Z,28.34
2023-03-27T12:35:27.945Z,27.40
2023-03-27T12:39:28.527Z,25.00
2023-03-27T12:43:28.080Z,25.53
2023-03-27T12:47:28.155Z,26.13
2023-03-27T12:51:28.180Z,27.27
2023-03-27T12:55:28.273Z,26.73
2023-03-27T12:59:28.367Z,26.72
2023-03-27T13:03:29.122Z,26.37
2023-03-27T13:07:30.492Z,27.27
2023-03-27T13:11:28.632Z,26.84
2023-03-27T13:15:28.722Z,26.59
2023-03-27T13:19:21.248Z,25.00
2023-03-27T13:20:21.225Z,25.00
2023-03-27T13:21:21.223Z,25.00
2023-03-27T13:22:21.225Z,25.00
2023-03-27T13:23:22.986Z,25.00
2023-03-27T13:24:21.209Z,25.00
2023-03-27T13:25:21.253Z,26.69
2023-03-27T13:26:21.198Z,26.34
2023-03-27T13:27:21.191Z,25.00
2023-03-27T13:28:21.196Z,25.00
2023-03-27T13:29:21.185Z,26.85
2023-03-27T13:30:21.211Z,26.58
2023-03-27T13:31:21.984Z,25.99
2023-03-27T13:32:21.177Z,26.30
2023-03-27T13:33:21.426Z,25.98
2023-03-27T13:34:21.205Z,25.35
2023-03-27T13:35:21.235Z,25.00
2023-03-27T13:36:21.214Z,27.62
2023-03-27T13:37:21.146Z,28.18
2023-03-27T13:38:21.140Z,25.02
2023-03-27T13:39:21.207Z,26.92
2023-03-27T13:40:21.140Z,27.71
2023-03-27T13:41:21.609Z,25.87
2023-03-27T13:42:21.231Z,25.40
2023-03-27T13:43:21.124Z,25.49
2023-03-27T13:44:21.131Z,25.63
2023-03-27T13:45:21.110Z,27.14
2023-03-27T13:46:21.120Z,25.47
2023-03-27T13:47:21.097Z,27.79
2023-03-27T13:48:21.089Z,25.55
2023-03-27T13:49:21.106Z,26.89
2023-03-27T13:50:21.084Z,25.42
2023-03-27T13:51:21.356Z,25.00
2023-03-27T13:52:21.059Z,25.38
2023-03-27T13:53:23.171Z,26.55
2023-03-27T13:54:21.039Z,27.18
2023-03-27T13:55:21.035Z,25.84
2023-03-27T13:56:21.052Z,25.57
2023-03-27T13:57:21.048Z,27.21
2023-03-27T13:58:20.994Z,27.29
2023-03-27T13:59:20.999Z,25.29
2023-03-27T14:00:21.010Z,28.31
2023-03-27T14:01:22.251Z,26.26
2023-03-27T14:02:21.140Z,30.20
2023-03-27T14:03:21.080Z,28.06
2023-03-27T14:04:20.985Z,25.00
2023-03-27T14:05:20.981Z,27.88
2023-03-27T14:06:22.222Z,25.00
2023-03-27T14:07:20.975Z,26.84
2023-03-27T14:08:20.975Z,26.05
2023-03-27T14:09:20.968Z,29.20
2023-03-27T14:10:20.977Z,26.76
2023-03-27T14:11:20.973Z,25.47
2023-03-27T14:12:20.964Z,25.76
2023-03-27T14:13:20.947Z,26.07
2023-03-27T14:14:20.951Z,25.83
2023-03-27T14:15:21.978Z,29.16
2023-03-27T14:16:20.989Z,26.83
2023-03-27T14:17:20.951Z,27.59
2023-03-27T14:18:20.944Z,26.16
2023-03-27T14:19:20.940Z,27.07
2023-03-27T14:20:20.949Z,25.98
2023-03-27T14:21:35.504Z,26.40
2023-03-27T14:22:21.934Z,26.70
2023-03-27T14:23:20.924Z,26.81
2023-03-27T14:24:20.927Z,27.10
2023-03-27T14:25:22.760Z,26.02
2023-03-27T14:26:20.917Z,25.66
2023-03-27T14:27:20.911Z,26.48
2023-03-27T14:28:20.918Z,26.55
2023-03-27T14:29:20.896Z,26.97
2023-03-27T14:30:20.896Z,25.80
2023-03-27T14:31:20.936Z,27.11
2023-03-27T14:32:20.883Z,27.04
2023-03-27T14:33:20.945Z,27.05
2023-03-27T14:34:20.874Z,27.00
2023-03-27T14:35:20.873Z,25.14
2023-03-27T14:36:20.844Z,27.77
2023-03-27T14:37:20.845Z,27.95
2023-03-27T14:38:20.840Z,27.89
2023-03-27T14:39:20.829Z,26.66
2023-03-27T14:40:20.849Z,26.40
2023-03-27T14:41:20.816Z,27.44
2023-03-27T14:42:22.130Z,26.88
2023-03-27T14:43:20.888Z,25.00
2023-03-27T14:44:22.696Z,26.66
2023-03-27T14:45:20.790Z,25.65
2023-03-27T14:46:21.189Z,25.97
2023-03-27T14:47:20.787Z,26.70
2023-03-27T14:48:20.765Z,25.39
2023-03-27T14:49:22.643Z,27.17
2023-03-27T14:50:20.758Z,30.59
2023-03-27T14:51:21.711Z,26.64
2023-03-27T14:52:20.846Z,30.02
2023-03-27T14:53:20.735Z,29.08
2023-03-27T14:54:20.728Z,26.12
2023-03-27T14:55:20.718Z,27.99
2023-03-27T14:56:20.699Z,27.59
2023-03-27T14:57:20.787Z,27.15
2023-03-27T14:58:20.792Z,27.56
2023-03-27T14:59:20.680Z,25.69
2023-03-27T15:00:20.655Z,27.87
2023-03-27T15:01:20.672Z,26.57
2023-03-27T15:02:20.651Z,28.01
2023-03-27T15:03:20.681Z,25.77
2023-03-27T15:04:20.805Z,27.92
2023-03-27T15:05:20.670Z,27.41
2023-03-27T15:06:20.918Z,26.86
2023-03-27T15:07:20.578Z,26.43
2023-03-27T15:08:20.791Z,28.73
2023-03-27T15:09:20.948Z,29.07
2023-03-27T15:10:20.574Z,27.04
2023-03-27T15:11:20.553Z,25.87
2023-03-27T15:12:20.551Z,25.79
2023-03-27T15:13:20.509Z,26.03
2023-03-27T15:14:20.525Z,28.75
2023-03-27T15:15:20.498Z,25.49
2023-03-27T15:16:20.520Z,25.96
2023-03-27T15:17:20.498Z,29.65
2023-03-27T15:18:20.467Z,26.61
2023-03-27T15:19:20.455Z,26.71
2023-03-27T15:20:20.462Z,27.42
2023-03-27T15:21:20.454Z,25.00
2023-03-27T15:22:23.768Z,25.95
2023-03-27T15:23:20.442Z,26.09
2023-03-27T15:24:20.478Z,26.55
2023-03-27T15:25:20.427Z,25.46
2023-03-27T15:26:20.420Z,26.55
2023-03-27T15:27:20.409Z,27.10
2023-03-27T15:28:21.263Z,27.56
2023-03-27T15:29:20.398Z,27.44
2023-03-27T15:30:20.409Z,26.75
2023-03-27T15:31:21.331Z,25.00
2023-03-27T15:32:20.427Z,26.27
2023-03-27T15:33:20.422Z,25.00
2023-03-27T15:34:20.380Z,30.73
2023-03-27T15:35:20.385Z,27.20
2023-03-27T15:36:20.359Z,26.17
2023-03-27T15:37:21.273Z,28.32
2023-03-27T15:38:20.322Z,29.00
2023-03-27T15:39:20.330Z,28.86
2023-03-27T15:40:20.313Z,30.04
2023-03-27T15:41:20.305Z,28.02
2023-03-27T15:42:20.314Z,29.62
2023-03-27T15:43:20.281Z,29.83
2023-03-27T15:44:20.270Z,28.69
2023-03-27T15:45:20.276Z,27.80
2023-03-27T15:46:20.305Z,26.36
2023-03-27T15:47:20.261Z,27.39
2023-03-27T15:48:20.271Z,29.20
2023-03-27T15:49:20.249Z,27.61
2023-03-27T15:50:20.270Z,27.09
2023-03-27T15:51:20.240Z,29.08
2023-03-27T15:52:20.223Z,29.24
2023-03-27T15:53:22.166Z,27.96
2023-03-27T15:54:20.288Z,28.83
2023-03-27T15:55:20.230Z,25.57
2023-03-27T15:56:20.248Z,27.26
2023-03-27T15:57:20.263Z,27.26
2023-03-27T15:58:20.227Z,31.07
2023-03-27T15:59:20.216Z,26.91
2023-03-27T16:00:20.230Z,27.75
2023-03-27T16:01:20.325Z,25.03
2023-03-27T16:02:20.407Z,26.41
2023-03-27T16:03:20.294Z,26.10
2023-03-27T16:04:20.317Z,26.37
2023-03-27T16:05:20.238Z,27.11
2023-03-27T16:06:20.236Z,29.08
2023-03-27T16:07:20.260Z,29.36
2023-03-27T16:08:20.299Z,26.45
2023-03-27T16:09:21.402Z,26.77
2023-03-27T16:10:20.313Z,27.11
2023-03-27T16:11:20.305Z,28.46
2023-03-27T16:12:20.308Z,29.10
2023-03-27T16:13:20.589Z,28.79
2023-03-27T16:14:20.302Z,30.42
2023-03-27T16:15:20.298Z,27.55
2023-03-27T16:16:20.343Z,29.71
2023-03-27T16:17:20.301Z,25.80
2023-03-27T16:18:20.295Z,25.20
2023-03-27T16:19:20.294Z,29.33
2023-03-27T16:20:20.304Z,26.93
2023-03-27T16:21:20.309Z,30.21
2023-03-27T16:22:20.345Z,27.46
2023-03-27T16:23:20.385Z,26.82
2023-03-27T16:24:20.430Z,27.79
2023-03-27T16:25:20.717Z,26.97
2023-03-27T16:26:21.881Z,29.08
2023-03-27T16:27:20.584Z,28.83
2023-03-27T16:28:20.639Z,27.74
2023-03-27T16:29:20.690Z,28.71
2023-03-27T16:30:20.752Z,28.79
2023-03-27T16:31:21.191Z,31.35
2023-03-27T16:32:20.851Z,30.69
2023-03-27T16:33:20.880Z,32.88
2023-03-27T16:34:22.982Z,32.87
2023-03-27T16:35:21.157Z,27.56
2023-03-27T16:36:21.227Z,28.09
2023-03-27T16:37:21.536Z,29.03
2023-03-27T16:38:21.290Z,26.72
2023-03-27T16:39:21.323Z,29.35
2023-03-27T16:40:21.391Z,29.13
2023-03-27T16:41:21.508Z,27.73
2023-03-27T16:42:23.480Z,29.48
2023-03-27T16:43:21.500Z,29.56
2023-03-27T16:44:21.517Z,29.90
2023-03-27T16:45:21.511Z,28.30
2023-03-27T16:46:21.519Z,26.65
2023-03-27T16:47:21.724Z,28.70
2023-03-27T16:48:21.570Z,29.51
2023-03-27T16:49:21.519Z,29.51
2023-03-27T16:50:21.580Z,28.63
2023-03-27T16:51:21.614Z,29.99
2023-03-27T16:52:21.810Z,27.85
2023-03-27T16:53:21.578Z,28.98
2023-03-27T16:54:21.554Z,25.00
2023-03-27T16:55:21.655Z,29.88
2023-03-27T16:56:21.667Z,31.40
2023-03-27T16:57:21.557Z,29.76
2023-03-27T16:58:23.698Z,29.19
2023-03-27T16:59:21.563Z,30.79
2023-03-27T17:00:21.594Z,30.42
2023-03-27T17:01:21.641Z,31.02
2023-03-27T17:02:21.661Z,30.05
2023-03-27T17:03:21.577Z,28.05
2023-03-27T17:04:21.587Z,28.17
2023-03-27T17:05:22.802Z,28.18
2023-03-27T17:06:21.708Z,29.27
2023-03-27T17:07:21.742Z,29.05
2023-03-27T17:08:21.849Z,30.84
2023-03-27T17:09:22.129Z,28.95
2023-03-27T17:10:21.870Z,28.45
2023-03-27T17:11:21.925Z,28.79
2023-03-27T17:12:22.398Z,26.49
2023-03-27T17:13:22.037Z,29.59
2023-03-27T17:14:22.075Z,29.89
2023-03-27T17:15:22.129Z,29.85
2023-03-27T17:16:22.234Z,33.20
2023-03-27T17:17:23.221Z,30.67
2023-03-27T17:18:22.410Z,30.30
2023-03-27T17:19:22.369Z,30.30
2023-03-27T17:20:22.432Z,33.13
2023-03-27T17:21:22.517Z,28.10
2023-03-27T17:22:22.544Z,28.21
2023-03-27T17:23:22.611Z,26.10
2023-03-27T17:24:22.673Z,27.01
2023-03-27T17:25:24.702Z,26.24
2023-03-27T17:26:22.900Z,25.00
2023-03-27T17:27:22.872Z,30.53
2023-03-27T17:28:22.930Z,29.52
2023-03-27T17:29:23.004Z,27.60
2023-03-27T17:30:36.707Z,25.25
2023-03-27T17:31:24.079Z,25.57
2023-03-27T17:32:23.105Z,25.83
2023-03-27T17:33:23.060Z,26.04
2023-03-27T17:34:23.068Z,25.87
2023-03-27T17:35:23.103Z,26.29
2023-03-27T17:36:36.740Z,30.33
2023-03-27T17:37:24.097Z,30.58
2023-03-27T17:38:24.212Z,30.43
2023-03-27T17:39:23.089Z,27.36
2023-03-27T17:40:23.099Z,29.02
2023-03-27T17:41:23.100Z,31.74
2023-03-27T17:42:23.101Z,31.37
2023-03-27T17:43:23.098Z,34.32
2023-03-27T17:44:23.097Z,34.54
2023-03-27T17:45:25.210Z,32.96
2023-03-27T17:46:23.200Z,32.11
2023-03-27T17:47:23.549Z,33.41
2023-03-27T17:48:23.293Z,30.11
2023-03-27T17:49:23.436Z,32.37
2023-03-27T17:50:23.426Z,35.01
2023-03-27T17:51:23.489Z,33.77
2023-03-27T17:52:23.575Z,34.64
2023-03-27T17:53:23.631Z,33.91
2023-03-27T17:54:24.255Z,32.62
2023-03-27T17:55:23.915Z,35.16
2023-03-27T17:56:24.024Z,34.73
2023-03-27T17:57:23.909Z,33.61
2023-03-27T17:58:23.973Z,33.42
2023-03-27T17:59:24.037Z,32.78
2023-03-27T18:00:24.110Z,32.38
2023-03-27T18:01:24.247Z,32.43
2023-03-27T18:02:24.326Z,35.69
2023-03-27T18:03:24.458Z,32.01
2023-03-27T18:04:24.396Z,33.29
2023-03-27T18:05:24.422Z,33.39
2023-03-27T18:06:24.495Z,33.19
2023-03-27T18:07:24.567Z,34.45
2023-03-27T18:08:24.649Z,36.22
2023-03-27T18:09:24.691Z,33.40
2023-03-27T18:10:24.754Z,31.71
2023-03-27T18:11:24.903Z,37.54
2023-03-27T18:12:24.885Z,33.38
2023-03-27T18:13:24.946Z,37.63
2023-03-27T18:14:25.015Z,34.38
2023-03-27T18:15:25.065Z,32.81
2023-03-27T18:16:25.177Z,35.70
2023-03-27T18:17:25.203Z,32.15
2023-03-27T18:18:25.277Z,34.50
2023-03-27T18:19:25.324Z,34.66
2023-03-27T18:20:25.402Z,32.09
2023-03-27T18:21:25.457Z,34.14
2023-03-27T18:22:27.267Z,34.14
2023-03-27T18:23:25.567Z,33.35
2023-03-27T18:24:25.630Z,34.52
2023-03-27T18:25:25.692Z,34.14
2023-03-27T18:26:26.056Z,33.92
2023-03-27T18:27:25.818Z,33.65
2023-03-27T18:28:25.876Z,30.53
2023-03-27T18:29:25.933Z,33.93
2023-03-27T18:30:25.992Z,31.90
2023-03-27T18:31:26.094Z,34.02
2023-03-27T18:32:26.182Z,34.42
2023-03-27T18:33:26.158Z,34.72
2023-03-27T18:34:26.228Z,32.36
2023-03-27T18:35:26.297Z,32.35
2023-03-27T18:36:26.368Z,33.35
2023-03-27T18:37:26.451Z,33.41
2023-03-27T18:38:26.523Z,35.41
2023-03-27T18:39:26.565Z,32.88
2023-03-27T18:40:26.652Z,36.40
2023-03-27T18:41:26.701Z,31.31
2023-03-27T18:42:26.809Z,31.30
2023-03-27T18:43:26.854Z,34.07
2023-03-27T18:44:28.695Z,33.36
2023-03-27T18:45:26.978Z,32.98
2023-03-27T18:46:27.102Z,33.69
2023-03-27T18:47:27.153Z,32.79
2023-03-27T18:48:27.196Z,34.01
2023-03-27T18:49:27.265Z,34.10
2023-03-27T18:50:27.336Z,32.00
2023-03-27T18:51:27.410Z,32.95
2023-03-27T18:52:27.463Z,30.17
2023-03-27T18:53:27.570Z,30.86
2023-03-27T18:54:27.611Z,33.29
2023-03-27T18:55:27.655Z,32.53
2023-03-27T18:56:27.726Z,31.97
2023-03-27T18:57:27.822Z,32.13
2023-03-27T18:58:27.952Z,33.30
2023-03-27T18:59:27.874Z,33.62
2023-03-27T19:00:27.946Z,33.25
2023-03-27T19:01:28.046Z,32.15
2023-03-27T19:02:28.125Z,32.26
2023-03-27T19:03:28.167Z,31.86
2023-03-27T19:04:28.163Z,31.60
2023-03-27T19:05:28.221Z,31.18
2023-03-27T19:06:30.269Z,28.94
2023-03-27T19:07:28.351Z,30.88
2023-03-27T19:08:28.431Z,30.30
2023-03-27T19:09:40.844Z,31.21
2023-03-27T19:10:29.659Z,31.41
2023-03-27T19:11:28.650Z,31.23
2023-03-27T19:12:28.710Z,31.02
2023-03-27T19:13:28.893Z,30.42
2023-03-27T19:14:28.905Z,29.64
2023-03-27T19:15:28.918Z,30.50
2023-03-27T19:16:29.028Z,30.07
2023-03-27T19:17:29.094Z,30.28
2023-03-27T19:18:29.123Z,30.24
2023-03-27T19:19:29.169Z,27.45
2023-03-27T19:20:29.232Z,30.52
2023-03-27T19:21:29.315Z,27.60
2023-03-27T19:22:29.367Z,32.40
2023-03-27T19:23:29.431Z,29.32
2023-03-27T19:24:29.507Z,28.05
2023-03-27T19:25:29.573Z,29.78
2023-03-27T19:26:29.831Z,29.03
2023-03-27T19:27:38.557Z,28.28
2023-03-27T19:28:30.771Z,28.51
2023-03-27T19:29:29.707Z,28.96
2023-03-27T19:30:29.742Z,29.16
2023-03-27T19:31:29.726Z,27.14
2023-03-27T19:32:29.766Z,28.41
2023-03-27T19:33:29.746Z,28.11
2023-03-27T19:34:41.963Z,27.93
2023-03-27T19:35:30.791Z,28.13
2023-03-27T19:36:29.757Z,28.07
2023-03-27T19:37:29.762Z,28.33
2023-03-27T19:38:29.771Z,27.01
2023-03-27T19:39:29.778Z,26.89
2023-03-27T19:40:29.772Z,28.59
2023-03-27T19:41:29.782Z,27.87
2023-03-27T19:42:29.773Z,30.52
2023-03-27T19:43:29.787Z,26.06
2023-03-27T19:44:31.863Z,25.01
2023-03-27T19:45:29.919Z,25.61
2023-03-27T19:46:30.055Z,28.82
2023-03-27T19:47:30.279Z,28.81
2023-03-27T19:48:30.106Z,26.80
2023-03-27T19:49:30.131Z,27.25
2023-03-27T19:50:30.195Z,29.07
2023-03-27T19:51:30.248Z,29.64
2023-03-27T19:52:30.300Z,30.74
2023-03-27T19:53:30.359Z,26.50
2023-03-27T19:54:31.344Z,27.32
2023-03-27T19:55:30.436Z,27.44
2023-03-27T19:56:30.511Z,30.18
2023-03-27T19:57:30.518Z,29.02
2023-03-27T19:58:30.851Z,28.21
2023-03-27T19:59:31.262Z,26.38
2023-03-27T20:00:31.655Z,31.31
2023-03-27T20:01:30.732Z,29.20
2023-03-27T20:02:30.859Z,26.66
2023-03-27T20:03:31.025Z,28.09
2023-03-27T20:04:30.859Z,26.70
2023-03-27T20:05:30.924Z,27.64
2023-03-27T20:06:30.978Z,28.60
2023-03-27T20:07:31.790Z,26.70
2023-03-27T20:08:31.089Z,27.05
2023-03-27T20:09:31.099Z,29.80
2023-03-27T20:10:31.098Z,29.82
2023-03-27T20:11:31.096Z,27.32
2023-03-27T20:12:33.015Z,28.24
2023-03-27T20:13:31.896Z,28.31
2023-03-27T20:14:31.120Z,28.46
2023-03-27T20:15:31.119Z,28.56
2023-03-27T20:16:31.197Z,28.94
2023-03-27T20:17:31.152Z,27.32
2023-03-27T20:18:31.133Z,25.80
2023-03-27T20:19:31.137Z,26.80
2023-03-27T20:20:31.142Z,26.19
2023-03-27T20:21:31.130Z,27.52
2023-03-27T20:22:32.944Z,28.37
2023-03-27T20:23:31.148Z,28.60
2023-03-27T20:24:31.168Z,28.51
2023-03-27T20:25:31.143Z,29.08
2023-03-27T20:26:31.154Z,25.71
2023-03-27T20:27:31.155Z,27.95
2023-03-27T20:28:31.171Z,26.34
2023-03-27T20:29:31.173Z,27.27
2023-03-27T20:30:31.184Z,27.56
2023-03-27T20:31:31.245Z,30.84
2023-03-27T20:32:31.199Z,28.26
2023-03-27T20:33:31.185Z,29.39
2023-03-27T20:34:31.191Z,29.09
2023-03-27T20:35:31.187Z,25.03
2023-03-27T20:36:31.204Z,25.00
2023-03-27T20:37:31.201Z,25.38
2023-03-27T20:38:31.218Z,28.24
2023-03-27T20:39:32.204Z,27.80
2023-03-27T20:40:39.612Z,28.54
2023-03-27T20:41:32.529Z,28.90
2023-03-27T20:42:31.225Z,29.05
2023-03-27T20:43:31.237Z,29.48
2023-03-27T20:44:31.239Z,31.18
2023-03-27T20:45:31.398Z,29.98
2023-03-27T20:46:31.271Z,27.96
2023-03-27T20:47:31.264Z,25.74
2023-03-27T20:48:31.268Z,30.29
2023-03-27T20:49:40.668Z,29.06
2023-03-27T20:50:32.293Z,29.13
2023-03-27T20:51:31.292Z,29.24
2023-03-27T20:52:31.447Z,29.68
2023-03-27T20:53:33.910Z,29.86
2023-03-27T20:54:31.332Z,29.35
2023-03-27T20:55:34.756Z,28.29
2023-03-27T20:56:32.328Z,28.68
2023-03-27T20:57:31.328Z,29.21
2023-03-27T20:58:32.299Z,28.57
2023-03-27T20:59:31.346Z,27.88
2023-03-27T21:00:31.372Z,27.12
2023-03-27T21:01:31.372Z,27.89
2023-03-27T21:02:31.421Z,26.29
2023-03-27T21:03:31.463Z,28.21
2023-03-27T21:04:31.417Z,27.94
2023-03-27T21:05:31.428Z,25.26
2023-03-27T21:06:32.281Z,28.36
2023-03-27T21:07:31.522Z,27.99
2023-03-27T21:08:31.568Z,28.79
2023-03-27T21:09:31.624Z,27.64
2023-03-27T21:10:31.678Z,26.18
2023-03-27T21:11:31.692Z,27.13
2023-03-27T21:12:31.757Z,29.74
2023-03-27T21:13:31.835Z,26.71
2023-03-27T21:14:31.910Z,29.68
2023-03-27T21:15:32.002Z,25.92
2023-03-27T21:16:32.100Z,28.41
2023-03-27T21:17:32.122Z,28.43
2023-03-27T21:18:32.178Z,27.58
2023-03-27T21:19:32.242Z,30.40
2023-03-27T21:20:34.656Z,25.34
2023-03-27T21:21:32.303Z,30.38
2023-03-27T21:22:32.302Z,25.09
2023-03-27T21:23:33.255Z,27.96
2023-03-27T21:24:32.303Z,29.49
2023-03-27T21:25:32.323Z,27.10
2023-03-27T21:26:32.325Z,25.00
2023-03-27T21:27:32.322Z,31.57
2023-03-27T21:28:33.361Z,32.00
2023-03-27T21:29:32.335Z,25.67
2023-03-27T21:30:46.220Z,27.38
2023-03-27T21:31:33.395Z,27.60
2023-03-27T21:32:32.380Z,27.89
2023-03-27T21:33:32.359Z,28.23
2023-03-27T21:34:32.357Z,28.99
2023-03-27T21:35:32.418Z,26.92
2023-03-27T21:36:33.440Z,27.48
2023-03-27T21:37:32.615Z,26.24
2023-03-27T21:38:32.374Z,28.45
2023-03-27T21:39:32.438Z,27.94
2023-03-27T21:40:32.374Z,25.15
2023-03-27T21:41:32.374Z,27.83
2023-03-27T21:42:32.380Z,26.57
2023-03-27T21:43:32.378Z,28.03
2023-03-27T21:44:32.389Z,28.98
2023-03-27T21:45:32.390Z,28.27
2023-03-27T21:46:32.445Z,25.89
2023-03-27T21:47:46.613Z,28.51
2023-03-27T21:48:33.382Z,28.67
2023-03-27T21:49:32.395Z,28.82
2023-03-27T21:50:32.384Z,26.47
2023-03-27T21:51:32.385Z,29.06
2023-03-27T21:52:32.397Z,24.83
2023-03-27T21:53:32.383Z,26.32
2023-03-27T21:54:32.405Z,26.55
2023-03-27T21:55:32.399Z,27.94
2023-03-27T21:56:32.388Z,27.91
2023-03-27T21:57:32.429Z,28.14
2023-03-27T21:58:32.472Z,28.46
2023-03-27T21:59:32.782Z,30.36
2023-03-27T22:00:32.570Z,29.03
2023-03-27T22:01:32.591Z,29.92
2023-03-27T22:02:32.594Z,26.78
2023-03-27T22:03:32.574Z,25.48
2023-03-27T22:04:32.653Z,26.35
2023-03-27T22:05:32.660Z,29.17
2023-03-27T22:06:32.682Z,27.72
2023-03-27T22:07:34.914Z,26.85
2023-03-27T22:08:32.807Z,25.50
2023-03-27T22:09:32.804Z,28.19
2023-03-27T22:10:32.817Z,28.09
2023-03-27T22:11:32.864Z,27.75
2023-03-27T22:12:32.905Z,31.52
2023-03-27T22:13:32.951Z,27.56
2023-03-27T22:14:33.007Z,28.52
2023-03-27T22:15:33.073Z,27.40
2023-03-27T22:16:33.061Z,28.61
2023-03-27T22:17:33.129Z,29.06
2023-03-27T22:18:33.115Z,26.70
2023-03-27T22:19:33.138Z,26.61
2023-03-27T22:20:33.191Z,27.57
2023-03-27T22:21:33.219Z,27.41
2023-03-27T22:22:33.248Z,25.59
2023-03-27T22:23:33.361Z,26.32
2023-03-27T22:24:33.326Z,28.07
2023-03-27T22:25:33.392Z,27.93
2023-03-27T22:26:33.404Z,27.29
2023-03-27T22:27:33.428Z,26.43
2023-03-27T22:28:33.463Z,26.32
2023-03-27T22:29:33.500Z,29.44
2023-03-27T22:30:33.534Z,28.24
2023-03-27T22:31:33.592Z,28.25
2023-03-27T22:32:35.292Z,28.08
2023-03-27T22:33:33.643Z,29.31
2023-03-27T22:34:33.695Z,26.86
2023-03-27T22:35:33.757Z,25.36
2023-03-27T22:36:33.754Z,27.06
2023-03-27T22:37:33.801Z,26.55
2023-03-27T22:38:33.810Z,27.88
2023-03-27T22:39:33.824Z,27.40
2023-03-27T22:40:33.837Z,26.17
2023-03-27T22:41:33.860Z,25.03
2023-03-27T22:42:33.867Z,25.82
2023-03-27T22:43:33.887Z,25.00
2023-03-27T22:44:33.910Z,25.00
2023-03-27T22:45:33.925Z,28.77
2023-03-27T22:46:34.031Z,27.24
2023-03-27T22:47:34.200Z,26.14
2023-03-27T22:48:34.064Z,26.32
2023-03-27T22:49:34.053Z,26.69
2023-03-27T22:50:34.315Z,27.80
2023-03-27T22:51:34.076Z,25.37